KACB/ACB METAR and TAF weather

Enter ICAO airport designator
Station Type Date Time Source
KACB METAR 2021/03/04 20:35 UTC NOAA

KACB 042035Z AUTO 33005KT 280V340 10SM CLR M02/M14 A3035 RMK AO2 T10201140


Station Type Date Time Source
KACB Decoded METAR 2021/03/04 20:35 UTC NOAA

Bellaire, Antrim County Airport, MI, United States (KACB) 44-59-18N 085-11-54W
Mar 04, 2021 - 03:35 PM EST / 2021.03.04 2035 UTC
Wind: from the NNW (330 degrees) at 6 MPH (5 KT) (direction variable):0
Visibility: 10 mile(s):0
Sky conditions: clear
Temperature: 28.4 F (-2.0 C)
Windchill: 21 F (-6 C):1
Dew Point: 6.8 F (-14.0 C)
Relative Humidity: 39%
Pressure (altimeter): 30.35 in. Hg (1027 hPa)
ob: KACB 042035Z AUTO 33005KT 280V340 10SM CLR M02/M14 A3035 RMK AO2 T10201140
cycle: 20

Station Type Date Time Source
KACB TAF UTC NOAA

Error!

Example: see airport list